createdAt,value
2018-07-09T00:01:44.525Z,951.4
2018-07-09T00:03:47.855Z,951.4
2018-07-09T00:05:51.217Z,951.5
2018-07-09T00:07:54.545Z,951.4
2018-07-09T00:09:57.916Z,951.4
2018-07-09T00:12:02.175Z,951.3
2018-07-09T00:14:05.506Z,951.3
2018-07-09T00:16:08.835Z,951.4
2018-07-09T00:18:12.165Z,951.4
2018-07-09T00:20:15.496Z,951.5
2018-07-09T00:22:18.827Z,951.4
2018-07-09T00:24:22.156Z,951.4
2018-07-09T00:26:25.497Z,951.4
2018-07-09T00:28:28.816Z,951.4
2018-07-09T00:30:32.184Z,951.5
2018-07-09T00:32:35.515Z,951.5
2018-07-09T00:34:38.849Z,951.6
2018-07-09T00:36:42.176Z,951.5
2018-07-09T00:38:45.504Z,951.5
2018-07-09T00:40:48.842Z,951.5
2018-07-09T00:42:52.168Z,951.4
2018-07-09T00:44:55.499Z,951.5
2018-07-09T00:46:58.860Z,951.4
2018-07-09T00:49:02.191Z,951.4
2018-07-09T00:51:05.829Z,951.5
2018-07-09T00:53:09.443Z,951.4
2018-07-09T00:55:12.774Z,951.4
2018-07-09T00:57:16.104Z,951.3
2018-07-09T00:59:19.438Z,951.4
2018-07-09T01:01:22.767Z,951.3
2018-07-09T01:03:26.131Z,951.3
2018-07-09T01:05:29.461Z,951.3
2018-07-09T01:07:32.792Z,951.3
2018-07-09T01:09:36.160Z,951.2
2018-07-09T01:11:39.531Z,951.2
2018-07-09T01:13:42.859Z,951.3
2018-07-09T01:15:46.190Z,951.2
2018-07-09T01:17:49.519Z,951.2
2018-07-09T01:19:52.894Z,951.2
2018-07-09T01:21:56.224Z,951.2
2018-07-09T01:23:59.554Z,951.2
2018-07-09T01:26:02.884Z,951.2
2018-07-09T01:28:06.214Z,951.2
2018-07-09T01:30:09.545Z,951.2
2018-07-09T01:32:12.874Z,951.2
2018-07-09T01:34:16.207Z,951.2
2018-07-09T01:36:19.536Z,951.3
2018-07-09T01:38:22.866Z,951.2
2018-07-09T01:40:29.256Z,951.1
2018-07-09T01:42:32.587Z,951.2
2018-07-09T01:44:35.916Z,951.2
2018-07-09T01:46:39.256Z,951.2
2018-07-09T01:48:42.592Z,951.2
2018-07-09T01:50:45.940Z,951.1
2018-07-09T01:52:49.277Z,951.1
2018-07-09T01:54:52.603Z,951.1
2018-07-09T01:56:55.968Z,951.1
2018-07-09T01:58:59.297Z,951.1
2018-07-09T02:01:02.629Z,951.1
2018-07-09T02:03:05.966Z,951.1
2018-07-09T02:05:09.324Z,951.1
2018-07-09T02:07:12.655Z,951.2
2018-07-09T02:09:15.986Z,951.2
2018-07-09T02:11:19.317Z,951.1
2018-07-09T02:13:22.644Z,951.1
2018-07-09T02:15:25.974Z,951.1
2018-07-09T02:17:29.307Z,951.1
2018-07-09T02:19:32.634Z,951.1
2018-07-09T02:21:35.997Z,951.1
2018-07-09T02:23:39.366Z,951.1
2018-07-09T02:25:42.696Z,951.1
2018-07-09T02:27:46.028Z,951.1
2018-07-09T02:29:49.398Z,951.2
2018-07-09T02:31:52.726Z,951.1
2018-07-09T02:33:56.148Z,951.1
2018-07-09T02:35:59.528Z,951.1
2018-07-09T02:38:02.855Z,951.2
2018-07-09T02:40:06.186Z,951.2
2018-07-09T02:42:09.516Z,951.2
2018-07-09T02:44:12.847Z,951.2
2018-07-09T02:46:16.181Z,951.2
2018-07-09T02:48:19.512Z,951.2
2018-07-09T02:50:22.840Z,951.2
2018-07-09T02:52:26.175Z,951.2
2018-07-09T02:54:29.502Z,951.2
2018-07-09T02:56:32.843Z,951.2
2018-07-09T02:58:36.165Z,951.2
2018-07-09T03:00:39.554Z,951.2
2018-07-09T03:02:42.972Z,951.2
2018-07-09T03:04:46.301Z,951.2
2018-07-09T03:06:49.676Z,951.2
2018-07-09T03:08:53.012Z,951.3
2018-07-09T03:10:56.385Z,951.2
2018-07-09T03:12:59.717Z,951.3
2018-07-09T03:15:03.049Z,951.2
2018-07-09T03:17:06.379Z,951.3
2018-07-09T03:19:09.758Z,951.3
2018-07-09T03:21:13.389Z,951.4
2018-07-09T03:23:16.753Z,951.3
2018-07-09T03:25:20.085Z,951.3
2018-07-09T03:27:23.413Z,951.4
2018-07-09T03:29:26.743Z,951.4
2018-07-09T03:31:31.058Z,951.4
2018-07-09T03:33:34.389Z,951.4
2018-07-09T03:35:37.719Z,951.3
2018-07-09T03:37:41.055Z,951.4
2018-07-09T03:39:44.421Z,951.5
2018-07-09T03:41:47.752Z,951.4
2018-07-09T03:43:51.080Z,951.4
2018-07-09T03:45:54.418Z,951.4
2018-07-09T03:47:57.739Z,951.4
2018-07-09T03:50:01.069Z,951.4
2018-07-09T03:52:04.400Z,951.5
2018-07-09T03:54:07.735Z,951.4
2018-07-09T03:56:11.136Z,951.4
2018-07-09T03:58:14.467Z,951.4
2018-07-09T04:00:17.797Z,951.4
2018-07-09T04:02:22.408Z,951.4
2018-07-09T04:04:25.695Z,951.4
2018-07-09T04:06:29.024Z,951.4
2018-07-09T04:08:32.359Z,951.5
2018-07-09T04:10:35.690Z,951.5
2018-07-09T04:12:39.018Z,951.5
2018-07-09T04:14:42.417Z,951.5
2018-07-09T04:16:45.882Z,951.6
2018-07-09T04:18:49.215Z,951.7
2018-07-09T04:20:52.686Z,951.7
2018-07-09T04:22:57.146Z,951.7
2018-07-09T04:25:00.421Z,951.6
2018-07-09T04:27:03.755Z,951.7
2018-07-09T04:29:07.083Z,951.6
2018-07-09T04:31:10.415Z,951.7
2018-07-09T04:33:13.745Z,951.7
2018-07-09T04:35:17.083Z,951.6
2018-07-09T04:37:20.408Z,951.7
2018-07-09T04:39:23.741Z,951.7
2018-07-09T04:41:29.888Z,951.7
2018-07-09T04:43:34.184Z,951.7
2018-07-09T04:45:37.545Z,951.7
2018-07-09T04:47:40.875Z,951.8
2018-07-09T04:49:44.235Z,951.8
2018-07-09T04:51:47.567Z,951.8
2018-07-09T04:53:50.899Z,951.8
2018-07-09T06:24:38.832Z,948.3
2018-07-09T06:26:43.102Z,948.2
2018-07-09T06:28:47.674Z,948.3
2018-07-09T06:30:54.060Z,948.2
2018-07-09T06:32:58.520Z,948.2
2018-07-09T06:35:03.516Z,948.2
2018-07-09T06:37:07.777Z,948.2
2018-07-09T06:39:12.512Z,948.2
2018-07-09T06:41:17.085Z,948.2
2018-07-09T06:43:22.114Z,948.1
2018-07-09T06:45:27.021Z,948.1
2018-07-09T06:47:31.363Z,948.1
2018-07-09T06:49:35.651Z,948.2
2018-07-09T06:51:40.315Z,948.2
2018-07-09T06:53:45.614Z,948.2
2018-07-09T06:55:50.131Z,948.1
2018-07-09T06:57:54.832Z,948.2
2018-07-09T06:59:59.099Z,948.3
2018-07-09T07:02:03.513Z,948.2
2018-07-09T07:04:07.976Z,948.2
2018-07-09T07:06:12.573Z,948.1
2018-07-09T07:08:17.034Z,948.3
2018-07-09T07:10:21.688Z,948.2
2018-07-09T07:12:27.349Z,948.3
2018-07-09T07:14:32.484Z,948.3
2018-07-09T07:16:37.571Z,948.3
2018-07-09T07:18:42.297Z,948.3
2018-07-09T07:20:47.159Z,948.3
2018-07-09T07:22:52.059Z,948.2
2018-07-09T07:24:56.972Z,948.2
2018-07-09T07:27:04.641Z,948.1
2018-07-09T07:29:09.239Z,948.1
2018-07-09T07:31:15.006Z,948.1
2018-07-09T07:33:20.128Z,948.1
2018-07-09T07:35:24.985Z,948.1
2018-07-09T07:37:32.139Z,948.1
2018-07-09T07:39:37.210Z,948.1
2018-07-09T07:41:42.406Z,948.1
2018-07-09T07:43:48.792Z,948.1
2018-07-09T07:45:53.546Z,948.2
2018-07-09T07:47:58.920Z,948.2
2018-07-09T07:50:03.841Z,948.2
2018-07-09T07:52:09.027Z,948.2
2018-07-09T07:54:20.366Z,948.2
2018-07-09T07:56:30.351Z,948.2
2018-07-09T07:58:35.198Z,948.2
2018-07-09T08:00:42.249Z,948.1
2018-07-09T08:02:49.162Z,948.1
2018-07-09T08:05:02.443Z,948.1
2018-07-09T08:07:09.934Z,948.1
2018-07-09T08:09:14.970Z,948.1
2018-07-09T08:11:19.667Z,948.2
2018-07-09T08:13:52.799Z,948.2
2018-07-09T08:15:57.569Z,948.2
2018-07-09T08:18:02.164Z,948.2
2018-07-09T08:20:07.120Z,948.2
2018-07-09T08:22:11.906Z,948.3
2018-07-09T08:24:16.814Z,948.2
2018-07-09T08:26:21.607Z,948.3
2018-07-09T08:28:26.494Z,948.2
2018-07-09T08:30:31.450Z,948.2
2018-07-09T08:32:36.216Z,948.2
2018-07-09T08:34:40.709Z,948.3
2018-07-09T08:36:45.502Z,948.3
2018-07-09T08:38:50.006Z,948.3
2018-07-09T08:43:18.230Z,948.3
2018-07-09T08:45:23.969Z,948.3
2018-07-09T08:47:28.728Z,948.3
2018-07-09T08:49:34.345Z,948.3
2018-07-09T08:51:39.247Z,948.3
2018-07-09T08:53:44.215Z,948.4
2018-07-09T08:55:49.818Z,948.3
2018-07-09T08:57:54.561Z,948.3
2018-07-09T08:59:59.438Z,948.3
2018-07-09T09:02:04.012Z,948.3
2018-07-09T09:04:08.429Z,948.3
2018-07-09T09:06:12.659Z,948.4
2018-07-09T09:08:16.801Z,948.4
2018-07-09T09:10:21.406Z,948.4
2018-07-09T09:12:25.719Z,948.4
2018-07-09T09:14:29.828Z,948.4
2018-07-09T09:16:34.356Z,948.4
2018-07-09T09:18:39.183Z,948.3
2018-07-09T09:20:43.854Z,948.3
2018-07-09T09:22:48.594Z,948.4
2018-07-09T09:24:53.070Z,948.3
2018-07-09T09:26:57.880Z,948.3
2018-07-09T09:30:40.777Z,948.3
2018-07-09T09:32:45.261Z,948.3
2018-07-09T09:34:49.354Z,948.3
2018-07-09T09:36:53.916Z,948.4
2018-07-09T09:38:59.077Z,948.4
2018-07-09T09:41:03.821Z,948.3
2018-07-09T09:43:08.710Z,948.4
2018-07-09T09:45:13.387Z,948.4
2018-07-09T09:47:18.001Z,948.3
2018-07-09T09:49:22.809Z,948.4
2018-07-09T09:51:31.093Z,948.4
2018-07-09T09:53:35.375Z,948.4
2018-07-09T09:55:40.526Z,948.4
2018-07-09T09:57:28.761Z,948.3
2018-07-09T09:59:33.663Z,948.3
2018-07-09T10:01:44.691Z,948.3
2018-07-09T10:03:52.311Z,948.2
2018-07-09T10:05:57.949Z,948.2
2018-07-09T10:08:05.788Z,948.2
2018-07-09T10:10:11.424Z,948.3
2018-07-09T10:12:28.365Z,948.3
2018-07-09T10:14:39.278Z,948.3
2018-07-09T10:16:47.576Z,948.3
2018-07-09T10:18:56.537Z,948.3
2018-07-09T10:21:04.177Z,948.3
2018-07-09T10:23:12.310Z,948.3
2018-07-09T10:25:17.420Z,948.3
2018-07-09T10:27:29.817Z,948.2
2018-07-09T10:29:46.504Z,948.1
2018-07-09T10:32:02.149Z,948.2
2018-07-09T10:34:17.887Z,948.1
2018-07-09T10:39:14.690Z,948.1
2018-07-09T10:41:22.727Z,948.1
2018-07-09T10:43:30.524Z,948.2
2018-07-09T10:46:20.468Z,948.1
2018-07-09T10:48:42.321Z,948
2018-07-09T10:50:49.998Z,947.9
2018-07-09T10:53:00.567Z,947.9
2018-07-09T10:55:04.973Z,947.9
2018-07-09T10:57:28.127Z,947.9
2018-07-09T10:59:36.596Z,947.8
2018-07-09T11:02:03.700Z,947.9
2018-07-09T11:04:08.881Z,947.8
2018-07-09T11:06:16.929Z,947.9
2018-07-09T11:08:46.036Z,947.8
2018-07-09T11:10:50.715Z,947.8
2018-07-09T11:13:01.321Z,947.8
2018-07-09T11:15:09.998Z,947.9
2018-07-09T11:17:22.457Z,947.8
2018-07-09T11:19:48.661Z,947.9
2018-07-09T11:21:57.878Z,947.9
2018-07-09T11:24:08.442Z,947.8
2018-07-09T11:27:02.124Z,947.8
2018-07-09T11:29:13.400Z,947.7
2018-07-09T11:31:27.341Z,947.8
2018-07-09T11:33:33.468Z,947.8
2018-07-09T11:36:08.428Z,947.7
2018-07-09T11:38:26.827Z,947.8
2018-07-09T11:40:45.958Z,947.8
2018-07-09T11:42:58.680Z,947.8
2018-07-09T11:45:12.508Z,947.8
2018-07-09T11:47:22.517Z,947.8
2018-07-09T11:49:37.873Z,947.8
2018-07-09T11:51:45.388Z,947.8
2018-07-09T11:53:50.081Z,947.8
2018-07-09T11:56:02.094Z,947.7
2018-07-09T11:58:14.794Z,947.8
2018-07-09T12:00:44.509Z,947.8
2018-07-09T12:03:01.848Z,947.7
2018-07-09T12:05:24.752Z,947.7
2018-07-09T12:07:35.641Z,947.7
2018-07-09T12:09:58.464Z,947.7
2018-07-09T12:12:17.816Z,947.7
2018-07-09T12:14:31.207Z,947.7
2018-07-09T12:19:21.789Z,947.7
2018-07-09T12:21:45.094Z,947.7
2018-07-09T12:24:59.941Z,947.6
2018-07-09T12:27:39.377Z,947.6
2018-07-09T12:30:38.851Z,947.7
2018-07-09T12:33:00.926Z,947.6
2018-07-09T12:35:29.937Z,947.7
2018-07-09T12:38:04.751Z,947.6
2018-07-09T12:40:47.370Z,947.6
2018-07-09T12:43:21.224Z,947.5
2018-07-09T12:45:45.920Z,947.5
2018-07-09T12:48:12.253Z,947.5
2018-07-09T12:51:12.316Z,947.5
2018-07-09T12:54:01.952Z,947.5
2018-07-09T12:56:11.823Z,947.4
2018-07-09T12:58:41.416Z,947.5
2018-07-09T13:01:13.150Z,947.4
2018-07-09T13:04:32.938Z,947.4
2018-07-09T13:07:28.901Z,947.3
2018-07-09T13:12:31.985Z,947.2
2018-07-09T13:14:51.887Z,947.2
2018-07-09T13:18:05.405Z,947.2
2018-07-09T13:20:38.197Z,947.3
2018-07-09T13:23:55.414Z,947.2
2018-07-09T13:26:15.694Z,947.2
2018-07-09T13:28:57.224Z,947.4
2018-07-09T13:33:54.891Z,947.2
2018-07-09T13:37:06.136Z,947.2
2018-07-09T13:39:35.584Z,947.2
2018-07-09T13:42:20.085Z,947.2
2018-07-09T13:44:57.012Z,947.2
2018-07-09T13:55:14.493Z,947.3
2018-07-09T13:57:47.775Z,947.3
2018-07-09T14:00:22.763Z,947.2
2018-07-09T14:05:57.229Z,947.2
2018-07-09T14:08:06.976Z,947.2
2018-07-09T14:10:41.164Z,947.3
2018-07-09T14:12:48.857Z,947.3
2018-07-09T14:15:04.917Z,947.3
2018-07-09T14:17:09.132Z,947.3
2018-07-09T14:19:22.536Z,947.2
2018-07-09T14:21:32.600Z,947.1
2018-07-09T14:23:44.320Z,947.1
2018-07-09T14:25:48.520Z,947.1
2018-07-09T14:27:52.721Z,947.2
2018-07-09T14:29:59.899Z,947.1
2018-07-09T14:32:16.226Z,947.2
2018-07-09T14:34:23.740Z,947.1
2018-07-09T14:36:34.090Z,947.2
2018-07-09T14:38:38.851Z,947.3
2018-07-09T14:40:43.602Z,947.1
2018-07-09T14:42:47.956Z,947.2
2018-07-09T14:44:53.674Z,947.2
2018-07-09T14:47:03.158Z,947.2
2018-07-09T14:49:07.380Z,947.1
2018-07-09T14:51:21.678Z,947.1
2018-07-09T14:53:26.239Z,947
2018-07-09T14:55:30.468Z,947
2018-07-09T14:57:35.302Z,947
2018-07-09T14:59:42.494Z,946.9
2018-07-09T15:01:49.568Z,947
2018-07-09T15:03:56.898Z,946.9
2018-07-09T15:06:01.303Z,946.9
2018-07-09T15:08:05.441Z,947
2018-07-09T15:10:12.262Z,947
2018-07-09T15:12:20.181Z,947.1
2018-07-09T15:14:30.489Z,947.2
2018-07-09T15:16:34.812Z,947.3
2018-07-09T17:23:01.410Z,951.2
2018-07-09T17:25:06.388Z,951.2
2018-07-09T17:27:11.132Z,951.1
2018-07-09T17:29:14.978Z,951.1
2018-07-09T17:31:18.310Z,951.1
2018-07-09T17:33:21.639Z,951
2018-07-09T17:35:24.970Z,951.1
2018-07-09T17:37:28.299Z,951.1
2018-07-09T17:39:31.630Z,951.2
2018-07-09T17:41:34.959Z,951.2
2018-07-09T17:43:38.379Z,951.1
2018-07-09T17:45:41.712Z,951.1
2018-07-09T17:47:45.058Z,951.2
2018-07-09T17:49:48.654Z,951.1
2018-07-09T17:51:52.059Z,951.2
2018-07-09T17:53:55.382Z,951.2
2018-07-09T17:55:58.712Z,951.2
2018-07-09T17:58:02.049Z,951.2
2018-07-09T18:00:05.420Z,951.3
2018-07-09T18:02:08.749Z,951.3
2018-07-09T18:04:12.086Z,951.4
2018-07-09T18:06:15.417Z,951.3
2018-07-09T18:08:18.773Z,951.4
2018-07-09T18:10:25.069Z,951.4
2018-07-09T18:12:28.413Z,951.5
2018-07-09T18:14:31.734Z,951.5
2018-07-09T18:16:35.063Z,951.5
2018-07-09T18:18:38.393Z,951.6
2018-07-09T18:20:41.724Z,951.6
2018-07-09T18:22:45.056Z,951.6
2018-07-09T18:24:48.387Z,951.6
2018-07-09T18:26:51.715Z,951.6
2018-07-09T18:28:55.046Z,951.6
2018-07-09T18:30:58.421Z,951.6
2018-07-09T18:33:02.362Z,951.6
2018-07-09T18:35:12.747Z,951.7
2018-07-09T18:37:16.451Z,951.7
2018-07-09T18:39:19.821Z,951.7
2018-07-09T18:41:23.150Z,951.7
2018-07-09T18:43:26.483Z,951.7
2018-07-09T18:45:29.810Z,951.8
2018-07-09T18:47:33.149Z,951.7
2018-07-09T18:49:36.480Z,951.8
2018-07-09T18:51:39.812Z,951.8
2018-07-09T18:53:43.148Z,951.8
2018-07-09T18:55:46.478Z,951.8
2018-07-09T18:57:49.809Z,951.8
2018-07-09T18:59:53.137Z,951.8
2018-07-09T19:01:56.472Z,951.9
2018-07-09T19:03:59.811Z,951.9
2018-07-09T19:06:03.139Z,951.9
2018-07-09T19:08:06.469Z,952
2018-07-09T19:10:09.966Z,952
2018-07-09T19:12:13.452Z,952
2018-07-09T19:14:16.786Z,952.1
2018-07-09T19:16:20.167Z,952.1
2018-07-09T19:18:23.499Z,952
2018-07-09T19:20:26.829Z,952.1
2018-07-09T19:22:30.218Z,952.1
2018-07-09T19:24:33.547Z,952.1
2018-07-09T19:26:36.878Z,952.1
2018-07-09T19:28:40.206Z,952.2
2018-07-09T19:30:43.573Z,952.2
2018-07-09T19:32:46.904Z,952.3
2018-07-09T19:34:50.244Z,952.2
2018-07-09T19:36:53.968Z,952.3
2018-07-09T19:38:58.015Z,952.3
2018-07-09T19:41:01.345Z,952.3
2018-07-09T19:43:04.674Z,952.3
2018-07-09T19:45:08.005Z,952.3
2018-07-09T19:47:11.333Z,952.3
2018-07-09T19:49:14.661Z,952.3
2018-07-09T19:51:17.992Z,952.3
2018-07-09T19:53:21.324Z,952.4
2018-07-09T19:55:25.308Z,952.4
2018-07-09T19:57:28.668Z,952.4
2018-07-09T19:59:31.998Z,952.3
2018-07-09T20:01:35.358Z,952.4
2018-07-09T20:03:38.693Z,952.4
2018-07-09T20:05:42.017Z,952.3
2018-07-09T20:07:45.346Z,952.4
2018-07-09T20:09:48.689Z,952.4
2018-07-09T20:11:52.022Z,952.4
2018-07-09T20:13:55.390Z,952.4
2018-07-09T20:15:58.719Z,952.4
2018-07-09T20:18:02.049Z,952.5
2018-07-09T20:20:05.380Z,952.4
2018-07-09T20:22:08.711Z,952.4
2018-07-09T20:24:12.041Z,952.3
2018-07-09T20:26:15.371Z,952.4
2018-07-09T20:28:18.705Z,952.4
2018-07-09T20:30:22.160Z,952.4
2018-07-09T20:32:25.494Z,952.3
2018-07-09T20:34:28.969Z,952.4
2018-07-09T20:36:32.312Z,952.3
2018-07-09T20:38:35.643Z,952.3
2018-07-09T20:40:38.972Z,952.3
2018-07-09T20:42:42.340Z,952.4
2018-07-09T20:44:45.670Z,952.3
2018-07-09T20:46:49.000Z,952.3
2018-07-09T20:48:52.370Z,952.3
2018-07-09T20:50:55.745Z,952.3
2018-07-09T20:52:59.075Z,952.4
2018-07-09T20:55:02.406Z,952.4
2018-07-09T20:57:05.735Z,952.4
2018-07-09T20:59:09.065Z,952.4
2018-07-09T21:01:12.397Z,952.4
2018-07-09T21:03:15.725Z,952.4
2018-07-09T21:05:19.096Z,952.5
2018-07-09T21:07:22.422Z,952.4
2018-07-09T21:09:28.771Z,952.4
2018-07-09T21:18:23.610Z,952.4
2018-07-09T21:20:26.960Z,952.4
2018-07-09T21:22:30.269Z,952.5
2018-07-09T21:24:33.600Z,952.5
2018-07-09T21:26:36.931Z,952.5
2018-07-09T21:28:40.676Z,952.5
2018-07-09T21:30:46.523Z,952.5
2018-07-09T21:32:49.854Z,952.5
2018-07-09T21:34:53.186Z,952.5
2018-07-09T21:36:56.515Z,952.5
2018-07-09T21:39:00.080Z,952.4
2018-07-09T21:41:03.412Z,952.4
2018-07-09T21:43:06.770Z,952.4
2018-07-09T21:45:10.108Z,952.4
2018-07-09T21:47:16.137Z,952.4
2018-07-09T21:49:19.478Z,952.3
2018-07-09T21:51:22.797Z,952.3
2018-07-09T21:53:26.129Z,952.3
2018-07-09T21:55:29.460Z,952.3
2018-07-09T21:57:32.792Z,952.2
2018-07-09T21:59:36.125Z,952.3
2018-07-09T22:01:40.448Z,952.2
2018-07-09T22:03:43.779Z,952.3
2018-07-09T22:05:47.109Z,952.2
2018-07-09T22:07:51.371Z,952.2
2018-07-09T22:09:54.735Z,952.2
2018-07-09T22:11:58.072Z,952.2
2018-07-09T22:14:01.398Z,952.2
2018-07-09T22:16:07.632Z,952.2
2018-07-09T22:18:10.963Z,952.2
2018-07-09T22:20:14.308Z,952.1
2018-07-09T22:22:20.466Z,952.1
2018-07-09T22:24:23.793Z,952.1
2018-07-09T22:26:30.072Z,952.1
2018-07-09T22:28:36.168Z,952.1
2018-07-09T22:30:39.449Z,952.1
2018-07-09T22:32:42.783Z,952.1
2018-07-09T22:34:46.174Z,952.1
2018-07-09T22:36:49.503Z,952.2
2018-07-09T22:38:52.847Z,952.2
2018-07-09T22:40:56.179Z,952.2
2018-07-09T22:42:59.528Z,952.2
2018-07-09T22:45:02.866Z,952.2
2018-07-09T22:47:06.217Z,952.2
2018-07-09T22:49:09.583Z,952.3
2018-07-09T22:51:13.235Z,952.2
2018-07-09T22:53:17.421Z,952.2
2018-07-09T22:55:20.751Z,952.2
2018-07-09T22:57:24.081Z,952.2
2018-07-09T22:59:27.413Z,952.2
2018-07-09T23:01:30.743Z,952.2
2018-07-09T23:03:34.074Z,952.2
2018-07-09T23:05:37.406Z,952.3
2018-07-09T23:07:40.773Z,952.3
2018-07-09T23:09:44.280Z,952.3
2018-07-09T23:11:47.611Z,952.3
2018-07-09T23:13:50.940Z,952.3
2018-07-09T23:15:54.307Z,952.3
2018-07-09T23:17:57.645Z,952.3
2018-07-09T23:20:01.089Z,952.2
2018-07-09T23:22:04.420Z,952.2
2018-07-09T23:24:07.795Z,952.2
2018-07-09T23:26:11.159Z,952.2
2018-07-09T23:28:14.498Z,952.2
2018-07-09T23:30:17.852Z,952.1
2018-07-09T23:32:21.180Z,952.2
2018-07-09T23:34:24.512Z,952.2
2018-07-09T23:36:27.872Z,952.2
2018-07-09T23:38:31.203Z,952.2
2018-07-09T23:40:34.532Z,952.2
2018-07-09T23:42:37.905Z,952.1
2018-07-09T23:44:41.238Z,952.1
2018-07-09T23:46:44.565Z,952.1
2018-07-09T23:48:47.895Z,952.1
2018-07-09T23:50:51.226Z,952
2018-07-09T23:52:54.559Z,952
2018-07-09T23:54:57.942Z,952
2018-07-09T23:57:01.268Z,952.1
2018-07-09T23:59:04.600Z,952
